createdAt,value
2019-03-27T00:02:20.835Z,97878.59
2019-03-27T00:04:53.747Z,97875.45
2019-03-27T00:07:26.320Z,97869.44
2019-03-27T00:09:58.824Z,97861.44
2019-03-27T00:12:31.340Z,97861.22
2019-03-27T00:15:12.713Z,97859.37
2019-03-27T00:17:38.267Z,97858.36
2019-03-27T00:20:11.940Z,97856.34
2019-03-27T00:22:44.446Z,97856.53
2019-03-27T00:25:17.039Z,97855.97
2019-03-27T00:27:49.547Z,97867.55
2019-03-27T00:30:22.233Z,97856.27
2019-03-27T00:32:54.813Z,97862.72
2019-03-27T00:35:27.310Z,97860.86
2019-03-27T00:37:59.817Z,97858.09
2019-03-27T00:40:32.315Z,97853.66
2019-03-27T00:43:04.964Z,97857.45
2019-03-27T00:45:37.502Z,97854.33
2019-03-27T00:48:10.728Z,97859.22
2019-03-27T00:50:43.240Z,97862.16
2019-03-27T00:53:16.080Z,97859.45
2019-03-27T00:55:49.014Z,97857.48
2019-03-27T00:58:21.508Z,97854.97
2019-03-27T01:01:09.107Z,97853.02
2019-03-27T01:03:41.708Z,97852.28
2019-03-27T01:06:15.041Z,97853.22
2019-03-27T01:08:47.604Z,97851.59
2019-03-27T01:11:20.383Z,97849.66
2019-03-27T01:13:52.882Z,97846.80
2019-03-27T01:16:25.497Z,97851.75
2019-03-27T01:18:58.084Z,97848.46
2019-03-27T01:21:30.615Z,97843.87
2019-03-27T01:24:03.109Z,97843.13
2019-03-27T01:26:35.628Z,97848.72
2019-03-27T01:29:08.105Z,97841.80
2019-03-27T01:31:40.635Z,97838.70
2019-03-27T01:34:13.204Z,97842.48
2019-03-27T01:36:45.709Z,97838.31
2019-03-27T01:39:18.290Z,97837.06
2019-03-27T01:41:50.960Z,97841.69
2019-03-27T01:44:23.481Z,97841.62
2019-03-27T01:46:56.035Z,97837.45
2019-03-27T01:49:28.547Z,97840.92
2019-03-27T01:52:01.141Z,97835.81
2019-03-27T01:54:33.969Z,97843.86
2019-03-27T01:57:06.511Z,97843.77
2019-03-27T01:59:39.948Z,97839.72
2019-03-27T02:02:12.538Z,97841.59
2019-03-27T02:04:45.065Z,97840.83
2019-03-27T02:07:18.708Z,97841.31
2019-03-27T02:09:51.225Z,97846.82
2019-03-27T02:12:24.067Z,97846.45
2019-03-27T02:14:56.575Z,97844.44
2019-03-27T02:17:29.159Z,97843.87
2019-03-27T02:20:01.732Z,97840.56
2019-03-27T02:22:34.355Z,97844.55
2019-03-27T02:25:07.251Z,97847.56
2019-03-27T02:27:39.870Z,97846.26
2019-03-27T02:30:13.286Z,97848.68
2019-03-27T02:32:45.893Z,97849.48
2019-03-27T02:35:18.382Z,97848.50
2019-03-27T02:37:50.898Z,97855.95
2019-03-27T02:40:23.381Z,97853.86
2019-03-27T02:42:56.151Z,97858.69
2019-03-27T02:45:28.661Z,97862.05
2019-03-27T02:48:01.261Z,97862.55
2019-03-27T02:50:33.771Z,97859.23
2019-03-27T02:53:06.728Z,97863.00
2019-03-27T02:55:39.219Z,97856.47
2019-03-27T02:58:11.828Z,97861.83
2019-03-27T03:00:44.446Z,97863.59
2019-03-27T03:03:16.930Z,97856.93
2019-03-27T03:05:49.519Z,97857.94
2019-03-27T03:08:22.012Z,97858.39
2019-03-27T03:10:54.597Z,97862.45
2019-03-27T03:13:27.148Z,97853.97
2019-03-27T03:15:59.762Z,97852.34
2019-03-27T03:18:32.325Z,97857.02
2019-03-27T03:21:04.983Z,97858.33
2019-03-27T03:23:37.808Z,97860.59
2019-03-27T03:26:10.406Z,97861.32
2019-03-27T03:28:42.901Z,97858.57
2019-03-27T03:31:16.482Z,97850.88
2019-03-27T03:33:48.993Z,97855.05
2019-03-27T03:36:21.810Z,97852.64
2019-03-27T03:38:54.325Z,97851.50
2019-03-27T03:41:26.852Z,97853.89
2019-03-27T03:43:59.349Z,97856.70
2019-03-27T03:46:31.893Z,97856.63
2019-03-27T03:49:04.400Z,97852.98
2019-03-27T03:51:37.167Z,97860.61
2019-03-27T03:54:11.031Z,97859.69
2019-03-27T03:56:43.696Z,97857.08
2019-03-27T03:59:17.724Z,97854.73
2019-03-27T04:01:53.573Z,97857.36
2019-03-27T04:04:26.315Z,97859.87
2019-03-27T04:06:59.126Z,97864.91
2019-03-27T04:09:31.669Z,97865.92
2019-03-27T04:12:04.230Z,97871.69
2019-03-27T04:14:36.722Z,97871.89
2019-03-27T04:17:17.146Z,97873.66
2019-03-27T04:19:43.554Z,97868.63
2019-03-27T04:22:16.147Z,97871.23
2019-03-27T04:24:49.617Z,97870.97
2019-03-27T04:27:22.143Z,97869.58
2019-03-27T04:29:54.626Z,97867.99
2019-03-27T04:32:27.128Z,97877.86
2019-03-27T04:35:00.665Z,97874.51
2019-03-27T04:37:33.171Z,97877.95
2019-03-27T04:40:05.900Z,97875.52
2019-03-27T04:42:38.481Z,97872.07
2019-03-27T04:45:11.160Z,97873.66
2019-03-27T04:47:43.652Z,97880.09
2019-03-27T04:50:16.292Z,97879.45
2019-03-27T04:52:50.076Z,97880.47
2019-03-27T04:55:22.915Z,97878.88
2019-03-27T04:57:55.401Z,97883.72
2019-03-27T05:00:27.893Z,97883.72
2019-03-27T05:03:00.402Z,97889.59
2019-03-27T05:05:33.025Z,97886.23
2019-03-27T05:08:06.066Z,97895.27
2019-03-27T05:10:38.810Z,97895.27
2019-03-27T05:13:11.482Z,97893.30
2019-03-27T05:15:44.339Z,97891.63
2019-03-27T05:18:16.999Z,97891.73
2019-03-27T05:20:49.706Z,97901.96
2019-03-27T05:23:22.500Z,97897.50
2019-03-27T05:25:54.982Z,97895.64
2019-03-27T05:28:27.631Z,97902.33
2019-03-27T05:31:00.133Z,97899.73
2019-03-27T05:33:32.924Z,97902.51
2019-03-27T05:36:05.964Z,97907.38
2019-03-27T05:38:38.707Z,97911.45
2019-03-27T05:41:11.309Z,97912.37
2019-03-27T05:43:43.987Z,97919.28
2019-03-27T05:46:16.551Z,97928.78
2019-03-27T05:48:49.240Z,97923.28
2019-03-27T05:51:21.823Z,97922.64
2019-03-27T05:53:54.932Z,97926.92
2019-03-27T05:56:27.412Z,97928.60
2019-03-27T05:59:00.577Z,97936.14
2019-03-27T06:01:33.082Z,97929.33
2019-03-27T06:04:05.666Z,97932.31
2019-03-27T06:06:38.154Z,97934.08
2019-03-27T06:09:12.301Z,97933.61
2019-03-27T06:11:44.806Z,97932.86
2019-03-27T06:14:17.286Z,97937.16
2019-03-27T06:16:49.767Z,97946.48
2019-03-27T06:19:22.270Z,97941.23
2019-03-27T06:21:54.751Z,97945.98
2019-03-27T06:24:27.279Z,97950.02
2019-03-27T06:26:59.824Z,97953.91
2019-03-27T06:29:32.304Z,97949.81
2019-03-27T06:32:04.857Z,97953.73
2019-03-27T06:34:37.643Z,97955.24
2019-03-27T06:37:10.133Z,97950.28
2019-03-27T06:39:42.737Z,97951.67
2019-03-27T06:42:15.289Z,97954.48
2019-03-27T06:44:47.798Z,97956.42
2019-03-27T06:47:20.970Z,97959.50
2019-03-27T06:49:53.565Z,97963.03
2019-03-27T06:52:26.301Z,97956.13
2019-03-27T06:54:58.934Z,97956.34
2019-03-27T06:57:31.480Z,97959.41
2019-03-27T07:00:04.839Z,97961.80
2019-03-27T07:02:37.421Z,97964.33
2019-03-27T07:05:10.443Z,97968.79
2019-03-27T07:07:42.928Z,97966.93
2019-03-27T07:10:15.596Z,97968.22
2019-03-27T07:12:48.083Z,97968.77
2019-03-27T07:15:20.572Z,97963.47
2019-03-27T07:17:53.125Z,97968.92
2019-03-27T07:20:25.695Z,97969.69
2019-03-27T07:23:00.821Z,97971.78
2019-03-27T07:25:33.657Z,97969.30
2019-03-27T07:28:06.567Z,97971.52
2019-03-27T07:30:39.053Z,97978.98
2019-03-27T07:33:11.855Z,97978.39
2019-03-27T07:35:44.441Z,97981.00
2019-03-27T07:38:16.936Z,97981.44
2019-03-27T07:40:49.424Z,97987.78
2019-03-27T07:43:21.913Z,97988.34
2019-03-27T07:45:54.399Z,97981.78
2019-03-27T07:48:26.885Z,97989.66
2019-03-27T07:50:59.367Z,97987.63
2019-03-27T07:53:31.861Z,97987.13
2019-03-27T07:56:04.372Z,97990.63
2019-03-27T07:58:36.858Z,97998.01
2019-03-27T08:01:09.362Z,98000.77
2019-03-27T08:03:41.838Z,97997.52
2019-03-27T08:06:14.419Z,98005.50
2019-03-27T08:08:46.987Z,97993.16
2019-03-27T08:11:19.487Z,98000.59
2019-03-27T08:13:51.940Z,97995.02
2019-03-27T08:16:24.507Z,97995.48
2019-03-27T08:19:07.542Z,97999.50
2019-03-27T08:21:32.537Z,98002.81
2019-03-27T08:24:05.108Z,98001.59
2019-03-27T08:26:37.680Z,97996.52
2019-03-27T08:29:10.173Z,98000.89
2019-03-27T08:31:42.728Z,98001.40
2019-03-27T08:34:15.219Z,98002.88
2019-03-27T08:36:47.799Z,98004.89
2019-03-27T08:39:20.270Z,98010.87
2019-03-27T08:41:52.747Z,98006.88
2019-03-27T08:44:25.227Z,98006.44
2019-03-27T08:46:58.067Z,98003.01
2019-03-27T08:49:30.542Z,98008.61
2019-03-27T08:52:03.366Z,98008.61
2019-03-27T08:54:35.849Z,98002.23
2019-03-27T08:57:08.423Z,98003.43
2019-03-27T08:59:40.900Z,97997.56
2019-03-27T09:02:14.825Z,97995.52
2019-03-27T09:04:47.310Z,97999.05
2019-03-27T09:07:20.186Z,98001.91
2019-03-27T09:09:52.758Z,97995.41
2019-03-27T09:12:25.339Z,97992.44
2019-03-27T09:14:57.834Z,97999.64
2019-03-27T09:17:30.409Z,97992.41
2019-03-27T09:20:02.902Z,97993.61
2019-03-27T09:22:35.391Z,97999.44
2019-03-27T09:25:08.588Z,98001.95
2019-03-27T09:27:41.693Z,97998.97
2019-03-27T09:30:15.785Z,98003.52
2019-03-27T09:32:48.450Z,98003.10
2019-03-27T09:35:21.082Z,98009.41
2019-03-27T09:37:53.653Z,98013.84
2019-03-27T09:40:26.221Z,98009.74
2019-03-27T09:42:58.711Z,98014.18
2019-03-27T09:45:31.373Z,98011.36
2019-03-27T09:48:03.942Z,98014.88
2019-03-27T09:50:36.431Z,98010.84
2019-03-27T09:53:09.196Z,98005.89
2019-03-27T09:55:41.764Z,98012.82
2019-03-27T09:58:14.680Z,98013.70
2019-03-27T10:01:02.937Z,98013.20
2019-03-27T10:03:35.584Z,98018.94
2019-03-27T10:06:08.301Z,98023.16
2019-03-27T10:08:40.859Z,98016.23
2019-03-27T10:11:14.402Z,98015.93
2019-03-27T10:13:47.163Z,98016.89
2019-03-27T10:16:19.740Z,98019.90
2019-03-27T10:18:52.219Z,98013.96
2019-03-27T10:21:24.785Z,98017.31
2019-03-27T10:23:57.288Z,98013.63
2019-03-27T10:26:31.205Z,98007.44
2019-03-27T10:29:03.783Z,98012.52
2019-03-27T10:31:36.383Z,98000.38
2019-03-27T10:34:08.896Z,98001.55
2019-03-27T10:36:41.795Z,98004.87
2019-03-27T10:39:14.559Z,97998.09
2019-03-27T10:41:47.054Z,98000.92
2019-03-27T10:44:19.559Z,98005.68
2019-03-27T10:46:52.138Z,97998.09
2019-03-27T10:49:24.658Z,97997.36
2019-03-27T10:51:57.232Z,98007.22
2019-03-27T10:54:29.720Z,97999.80
2019-03-27T10:57:02.232Z,97993.73
2019-03-27T10:59:34.741Z,97998.42
2019-03-27T11:02:07.235Z,98002.25
2019-03-27T11:04:39.723Z,98004.34
2019-03-27T11:07:12.211Z,98011.39
2019-03-27T11:09:44.789Z,98015.06
2019-03-27T11:12:17.305Z,98002.75
2019-03-27T11:14:49.883Z,98014.78
2019-03-27T11:17:22.766Z,98007.28
2019-03-27T11:19:55.276Z,98003.52
2019-03-27T11:22:27.761Z,97996.83
2019-03-27T11:25:00.361Z,98007.72
2019-03-27T11:27:32.829Z,98011.63
2019-03-27T11:30:05.983Z,98010.09
2019-03-27T11:32:38.458Z,98018.06
2019-03-27T11:35:11.307Z,98011.14
2019-03-27T11:37:43.776Z,98013.50
2019-03-27T11:40:16.459Z,98012.10
2019-03-27T11:42:49.027Z,98014.58
2019-03-27T11:45:21.689Z,98017.97
2019-03-27T11:47:54.246Z,98011.48
2019-03-27T11:50:26.745Z,98012.13
2019-03-27T11:53:02.741Z,98012.70
2019-03-27T11:55:35.392Z,98004.61
2019-03-27T11:58:08.020Z,98014.68
2019-03-27T12:00:53.884Z,98008.55
2019-03-27T12:03:14.860Z,98009.16
2019-03-27T12:05:47.366Z,98013.18
2019-03-27T12:08:20.842Z,98004.32
2019-03-27T12:10:53.422Z,98008.19
2019-03-27T12:13:25.918Z,98012.27
2019-03-27T12:15:58.483Z,98009.23
2019-03-27T12:18:32.173Z,98004.34
2019-03-27T12:21:05.384Z,97995.20
2019-03-27T12:23:37.880Z,97999.16
2019-03-27T12:26:10.403Z,97999.77
2019-03-27T12:28:42.893Z,97993.53
2019-03-27T12:31:15.648Z,97995.64
2019-03-27T12:33:48.156Z,97988.18
2019-03-27T12:36:20.649Z,97987.94
2019-03-27T12:38:53.232Z,97986.45
2019-03-27T12:41:25.738Z,97988.34
2019-03-27T12:43:58.325Z,97984.28
2019-03-27T12:46:30.841Z,97986.19
2019-03-27T12:49:03.631Z,97984.81
2019-03-27T12:51:36.146Z,97980.50
2019-03-27T12:54:09.155Z,97976.39
2019-03-27T12:56:41.677Z,97965.74
2019-03-27T12:59:14.243Z,97968.31
2019-03-27T13:01:46.755Z,97975.42
2019-03-27T13:04:19.995Z,97969.52
2019-03-27T13:06:52.509Z,97970.30
2019-03-27T13:09:25.000Z,97973.16
2019-03-27T13:11:57.511Z,97966.77
2019-03-27T13:14:30.288Z,97973.43
2019-03-27T13:17:03.077Z,97967.29
2019-03-27T13:19:35.646Z,97965.78
2019-03-27T13:22:08.173Z,97966.68
2019-03-27T13:24:40.661Z,97967.87
2019-03-27T13:27:13.168Z,97964.89
2019-03-27T13:29:45.983Z,97967.81
2019-03-27T13:32:18.846Z,97970.23
2019-03-27T13:34:51.361Z,97961.30
2019-03-27T13:37:23.939Z,97962.89
2019-03-27T13:39:59.845Z,97954.59
2019-03-27T13:42:31.019Z,97960.92
2019-03-27T13:45:04.149Z,97961.39
2019-03-27T13:47:36.896Z,97961.54
2019-03-27T13:50:13.126Z,97954.94
2019-03-27T13:52:46.074Z,97952.57
2019-03-27T13:55:18.728Z,97954.73
2019-03-27T13:57:51.260Z,97953.18
2019-03-27T14:00:23.923Z,97953.75
2019-03-27T14:02:58.191Z,97960.22
2019-03-27T14:05:30.748Z,97956.80
2019-03-27T14:08:03.868Z,97959.47
2019-03-27T14:10:37.373Z,97958.15
2019-03-27T14:13:11.061Z,97961.34
2019-03-27T14:15:43.713Z,97953.27
2019-03-27T14:18:16.475Z,97954.53
2019-03-27T14:20:49.000Z,97957.44
2019-03-27T14:23:21.674Z,97954.88
2019-03-27T14:25:54.171Z,97952.16
2019-03-27T14:28:26.757Z,97959.41
2019-03-27T14:31:00.087Z,97960.84
2019-03-27T14:33:32.682Z,97958.36
2019-03-27T14:36:05.344Z,97947.73
2019-03-27T14:38:37.904Z,97949.25
2019-03-27T14:41:10.903Z,97942.94
2019-03-27T14:43:43.505Z,97949.81
2019-03-27T14:46:16.120Z,97947.08
2019-03-27T14:48:48.703Z,97951.45
2019-03-27T14:51:21.213Z,97950.68
2019-03-27T14:53:53.853Z,97951.84
2019-03-27T14:56:26.673Z,97951.98
2019-03-27T14:58:59.167Z,97956.54
2019-03-27T15:01:35.408Z,97952.08
2019-03-27T15:04:06.673Z,97952.69
2019-03-27T15:06:39.238Z,97956.60
2019-03-27T15:09:11.880Z,97959.36
2019-03-27T15:11:44.530Z,97953.88
2019-03-27T15:14:18.156Z,97956.00
2019-03-27T15:16:50.669Z,97956.84
2019-03-27T15:19:23.603Z,97943.97
2019-03-27T15:21:56.108Z,97957.28
2019-03-27T15:24:28.600Z,97953.11
2019-03-27T15:27:01.182Z,97955.16
2019-03-27T15:29:34.749Z,97952.59
2019-03-27T15:32:15.405Z,97959.79
2019-03-27T15:34:48.001Z,97957.68
2019-03-27T15:37:20.497Z,97960.55
2019-03-27T15:39:52.999Z,97958.80
2019-03-27T15:42:25.508Z,97965.34
2019-03-27T15:44:57.992Z,97967.03
2019-03-27T15:47:30.523Z,97965.99
2019-03-27T15:50:03.071Z,97969.34
2019-03-27T15:52:37.122Z,97967.69
2019-03-27T15:55:11.042Z,97974.74
2019-03-27T15:57:43.876Z,97966.84
2019-03-27T16:00:17.021Z,97961.56
2019-03-27T16:02:49.674Z,97967.27
2019-03-27T16:05:22.203Z,97963.66
2019-03-27T16:07:54.818Z,97966.25
2019-03-27T16:10:27.491Z,97965.77
2019-03-27T16:13:00.011Z,97966.30
2019-03-27T16:15:32.611Z,97972.00
2019-03-27T16:18:05.679Z,97969.58
2019-03-27T16:20:38.263Z,97975.94
2019-03-27T16:23:10.768Z,97976.95
2019-03-27T16:25:43.257Z,97973.31
2019-03-27T16:28:16.125Z,97972.23
2019-03-27T16:30:48.717Z,97979.98
2019-03-27T16:33:21.563Z,97975.48
2019-03-27T16:35:54.061Z,97984.58
2019-03-27T16:38:26.632Z,97987.29
2019-03-27T16:40:59.513Z,97989.93
2019-03-27T16:43:32.054Z,97988.80
2019-03-27T16:46:04.687Z,97987.62
2019-03-27T16:48:38.319Z,97992.25
2019-03-27T16:51:10.815Z,97993.36
2019-03-27T16:53:43.386Z,97996.35
2019-03-27T16:56:16.472Z,97996.35
2019-03-27T16:58:49.303Z,98000.89
2019-03-27T17:01:25.001Z,98006.56
2019-03-27T17:03:57.689Z,98006.20
2019-03-27T17:06:30.517Z,98012.81
2019-03-27T17:09:10.365Z,98004.22
2019-03-27T17:11:43.165Z,98009.62
2019-03-27T17:14:15.994Z,98014.06
2019-03-27T17:16:48.730Z,98011.66
2019-03-27T17:19:21.333Z,98010.84
2019-03-27T17:21:54.487Z,98018.84
2019-03-27T17:24:27.748Z,98010.88
2019-03-27T17:27:00.444Z,98024.73
2019-03-27T17:29:33.477Z,98022.97
2019-03-27T17:32:06.576Z,98024.99
2019-03-27T17:34:39.481Z,98033.36
2019-03-27T17:37:12.017Z,98038.61
2019-03-27T17:39:44.895Z,98037.38
2019-03-27T17:42:18.699Z,98042.27
2019-03-27T17:44:52.371Z,98037.74
2019-03-27T17:47:25.052Z,98042.84
2019-03-27T17:49:57.823Z,98042.73
2019-03-27T17:52:30.414Z,98046.88
2019-03-27T17:55:03.262Z,98047.92
2019-03-27T17:57:36.492Z,98051.25
2019-03-27T18:00:10.478Z,98053.15
2019-03-27T18:02:43.176Z,98048.08
2019-03-27T18:05:16.006Z,98055.55
2019-03-27T18:07:48.765Z,98052.52
2019-03-27T18:10:21.728Z,98054.94
2019-03-27T18:12:58.541Z,98065.91
2019-03-27T18:15:31.335Z,98063.90
2019-03-27T18:18:04.578Z,98060.13
2019-03-27T18:20:37.469Z,98061.71
2019-03-27T18:23:10.858Z,98064.77
2019-03-27T18:25:43.867Z,98068.98
2019-03-27T18:28:16.791Z,98073.58
2019-03-27T18:30:50.589Z,98072.27
2019-03-27T18:33:23.403Z,98077.95
2019-03-27T18:35:56.142Z,98069.95
2019-03-27T18:38:28.854Z,98076.94
2019-03-27T18:41:01.434Z,98080.89
2019-03-27T18:43:34.101Z,98087.86
2019-03-27T18:46:06.972Z,98093.42
2019-03-27T18:48:40.166Z,98085.78
2019-03-27T18:51:14.105Z,98088.11
2019-03-27T18:53:58.939Z,98087.52
2019-03-27T18:56:21.315Z,98087.07
2019-03-27T18:58:54.261Z,98091.12
2019-03-27T19:01:27.169Z,98097.65
2019-03-27T19:04:00.178Z,98096.73
2019-03-27T19:06:32.987Z,98102.80
2019-03-27T19:09:08.924Z,98112.88
2019-03-27T19:11:42.139Z,98109.03
2019-03-27T19:14:15.053Z,98113.06
2019-03-27T19:16:47.859Z,98115.20
2019-03-27T19:19:20.597Z,98124.88
2019-03-27T19:21:53.295Z,98120.11
2019-03-27T19:24:26.259Z,98114.70
2019-03-27T19:26:58.898Z,98118.59
2019-03-27T19:29:31.554Z,98118.92
2019-03-27T19:32:04.351Z,98121.52
2019-03-27T19:34:37.103Z,98115.60
2019-03-27T19:37:10.222Z,98121.14
2019-03-27T19:39:42.908Z,98116.05
2019-03-27T19:42:15.504Z,98124.53
2019-03-27T19:44:48.197Z,98125.98
2019-03-27T19:47:20.999Z,98130.75
2019-03-27T19:49:53.728Z,98132.50
2019-03-27T19:52:27.435Z,98124.38
2019-03-27T19:55:00.552Z,98126.62
2019-03-27T19:57:33.462Z,98133.58
2019-03-27T20:00:08.903Z,98133.02
2019-03-27T20:02:41.835Z,98130.11
2019-03-27T20:05:15.035Z,98132.69
2019-03-27T20:07:47.735Z,98132.50
2019-03-27T20:10:21.533Z,98136.95
2019-03-27T20:12:54.320Z,98136.05
2019-03-27T20:15:27.132Z,98143.98
2019-03-27T20:17:59.814Z,98145.98
2019-03-27T20:20:33.744Z,98142.07
2019-03-27T20:23:14.870Z,98144.41
2019-03-27T20:25:40.985Z,98152.84
2019-03-27T20:28:13.619Z,98147.21
2019-03-27T20:30:46.290Z,98147.94
2019-03-27T20:33:19.155Z,98149.81
2019-03-27T20:35:51.944Z,98142.53
2019-03-27T20:38:24.754Z,98137.59
2019-03-27T20:40:57.625Z,98147.02
2019-03-27T20:43:31.878Z,98143.91
2019-03-27T20:46:04.691Z,98146.20
2019-03-27T20:48:37.385Z,98142.10
2019-03-27T20:51:11.449Z,98146.53
2019-03-27T20:53:44.168Z,98144.56
2019-03-27T20:56:16.998Z,98150.67
2019-03-27T20:58:49.916Z,98159.16
2019-03-27T21:01:22.627Z,98157.88
2019-03-27T21:03:55.318Z,98153.62
2019-03-27T21:06:27.893Z,98155.08
2019-03-27T21:09:00.374Z,98156.09
2019-03-27T21:11:34.533Z,98155.50
2019-03-27T21:14:07.104Z,98156.58
2019-03-27T21:16:40.063Z,98164.23
2019-03-27T21:19:12.643Z,98160.09
2019-03-27T21:21:45.452Z,98164.91
2019-03-27T21:24:17.948Z,98161.25
2019-03-27T21:26:50.460Z,98163.83
2019-03-27T21:29:22.963Z,98164.91
2019-03-27T21:31:56.617Z,98168.73
2019-03-27T21:34:29.242Z,98166.00
2019-03-27T21:37:01.715Z,98164.91
2019-03-27T21:39:34.253Z,98165.53
2019-03-27T21:42:06.847Z,98162.23
2019-03-27T21:44:40.306Z,98167.58
2019-03-27T21:47:12.880Z,98162.86
2019-03-27T21:49:45.456Z,98167.22
2019-03-27T21:52:17.957Z,98169.29
2019-03-27T21:54:50.519Z,98181.29
2019-03-27T21:57:22.999Z,98182.27
2019-03-27T21:59:55.624Z,98173.39
2019-03-27T22:02:28.277Z,98172.23
2019-03-27T22:05:00.767Z,98179.71
2019-03-27T22:07:33.347Z,98179.55
2019-03-27T22:10:07.235Z,98170.98
2019-03-27T22:12:39.779Z,98175.66
2019-03-27T22:15:12.359Z,98170.55
2019-03-27T22:17:44.848Z,98174.08
2019-03-27T22:20:17.419Z,98181.10
2019-03-27T22:22:49.993Z,98182.31
2019-03-27T22:25:34.892Z,98179.41
2019-03-27T22:27:56.769Z,98182.80
2019-03-27T22:30:30.231Z,98179.80
2019-03-27T22:33:02.810Z,98186.08
2019-03-27T22:35:35.277Z,98187.30
2019-03-27T22:38:07.778Z,98182.19
2019-03-27T22:40:40.334Z,98180.52
2019-03-27T22:43:13.123Z,98184.26
2019-03-27T22:45:45.592Z,98184.27
2019-03-27T22:48:18.076Z,98182.66
2019-03-27T22:50:50.675Z,98183.04
2019-03-27T22:53:23.158Z,98187.16
2019-03-27T22:55:55.627Z,98192.80
2019-03-27T22:58:28.109Z,98188.91
2019-03-27T23:01:00.948Z,98192.80
2019-03-27T23:03:33.574Z,98188.59
2019-03-27T23:06:06.300Z,98190.12
2019-03-27T23:08:39.079Z,98185.84
2019-03-27T23:11:11.640Z,98183.17
2019-03-27T23:13:44.128Z,98184.16
2019-03-27T23:16:16.607Z,98180.71
2019-03-27T23:18:49.113Z,98192.18
2019-03-27T23:21:21.590Z,98184.86
2019-03-27T23:23:54.088Z,98177.81
2019-03-27T23:26:26.577Z,98178.20
2019-03-27T23:28:59.380Z,98175.67
2019-03-27T23:31:31.973Z,98173.39
2019-03-27T23:34:04.480Z,98175.67
2019-03-27T23:36:37.335Z,98175.99
2019-03-27T23:39:11.168Z,98178.59
2019-03-27T23:41:44.144Z,98174.63
2019-03-27T23:44:16.787Z,98180.56
2019-03-27T23:46:49.270Z,98180.05
2019-03-27T23:49:22.123Z,98181.36
2019-03-27T23:51:54.608Z,98175.46
2019-03-27T23:54:27.169Z,98176.91
2019-03-27T23:56:59.651Z,98177.63
2019-03-27T23:59:32.312Z,98177.54
